createdAt,value
2017-11-25T00:01:32.816Z,48.60
2017-11-25T00:04:02.471Z,40.67
2017-11-25T00:06:31.334Z,45.83
2017-11-25T00:09:00.280Z,46.80
2017-11-25T00:11:29.140Z,43.27
2017-11-25T00:13:57.963Z,41.20
2017-11-25T00:16:26.829Z,49.60
2017-11-25T00:18:55.684Z,45.77
2017-11-25T00:21:25.564Z,47.67
2017-11-25T00:23:54.397Z,42.97
2017-11-25T00:26:24.016Z,44.37
2017-11-25T00:28:52.863Z,43.83
2017-11-25T00:31:21.731Z,40.07
2017-11-25T00:33:50.677Z,42.10
2017-11-25T00:36:19.536Z,40.50
2017-11-25T00:38:49.164Z,43.70
2017-11-25T00:41:18.808Z,39.57
2017-11-25T00:43:47.664Z,45.50
2017-11-25T00:46:17.265Z,40.77
2017-11-25T00:48:46.895Z,48.03
2017-11-25T00:51:15.754Z,36.17
2017-11-25T00:53:45.401Z,41.30
2017-11-25T00:56:14.253Z,40.60
2017-11-25T00:58:43.872Z,41.73
2017-11-25T01:01:13.064Z,43.03
2017-11-25T01:03:42.916Z,38.37
2017-11-25T01:06:11.797Z,40.93
2017-11-25T01:08:40.619Z,39.40
2017-11-25T01:11:09.468Z,37.60
2017-11-25T01:13:38.319Z,39.30
2017-11-25T01:16:07.966Z,37.57
2017-11-25T01:18:37.437Z,41.40
2017-11-25T01:21:07.061Z,39.13
2017-11-25T01:23:35.928Z,44.10
2017-11-25T01:26:04.799Z,46.87
2017-11-25T01:28:34.440Z,38.30
2017-11-25T01:31:03.263Z,39.30
2017-11-25T01:33:32.125Z,40.40
2017-11-25T01:36:00.984Z,44.13
2017-11-25T01:38:30.619Z,50.13
2017-11-25T01:40:59.459Z,43.60
2017-11-25T01:43:28.349Z,44.00
2017-11-25T01:45:58.068Z,45.27
2017-11-25T01:48:26.916Z,46.43
2017-11-25T01:50:55.752Z,44.67
2017-11-25T01:53:25.368Z,52.00
2017-11-25T01:55:54.972Z,54.50
2017-11-25T01:58:24.592Z,48.30
2017-11-25T02:00:54.218Z,53.33
2017-11-25T02:03:23.487Z,61.90
2017-11-25T02:05:52.324Z,45.97
2017-11-25T02:08:21.192Z,48.80
2017-11-25T02:10:50.057Z,52.47
2017-11-25T02:13:19.667Z,59.67
2017-11-25T02:15:48.860Z,59.10
2017-11-25T02:18:17.692Z,63.07
2017-11-25T02:20:46.548Z,66.43
2017-11-25T02:23:15.380Z,66.57
2017-11-25T02:25:44.236Z,69.53
2017-11-25T02:28:13.074Z,63.00
2017-11-25T02:30:42.706Z,71.07
2017-11-25T02:33:11.555Z,55.77
2017-11-25T02:35:40.385Z,49.60
2017-11-25T02:38:09.243Z,54.37
2017-11-25T02:40:38.073Z,52.53
2017-11-25T02:43:06.917Z,57.40
2017-11-25T02:45:36.539Z,51.40
2017-11-25T02:48:05.600Z,50.53
2017-11-25T02:50:34.539Z,54.23
2017-11-25T02:53:03.396Z,65.23
2017-11-25T02:55:32.229Z,60.13
2017-11-25T02:58:01.085Z,52.50
2017-11-25T03:00:30.692Z,41.63
2017-11-25T03:03:00.357Z,37.50
2017-11-25T03:05:29.199Z,45.63
2017-11-25T03:07:58.818Z,48.17
2017-11-25T03:10:27.656Z,50.90
2017-11-25T03:12:56.496Z,52.07
2017-11-25T03:15:25.444Z,63.03
2017-11-25T03:17:54.305Z,48.87
2017-11-25T03:20:23.147Z,43.10
2017-11-25T03:22:52.796Z,36.67
2017-11-25T03:25:21.654Z,36.00
2017-11-25T03:27:51.293Z,31.03
2017-11-25T03:30:20.889Z,27.90
2017-11-25T03:32:50.622Z,27.30
2017-11-25T03:35:19.473Z,24.23
2017-11-25T03:37:48.331Z,22.17
2017-11-25T03:40:17.911Z,18.47
2017-11-25T03:42:46.748Z,15.43
2017-11-25T03:45:15.587Z,11.33
2017-11-25T03:47:44.427Z,10.27
2017-11-25T03:50:14.767Z,9.43
2017-11-25T03:52:43.604Z,11.10
2017-11-25T03:55:12.430Z,8.63
2017-11-25T03:57:42.759Z,8.20
2017-11-25T04:00:11.696Z,10.10
2017-11-25T04:02:40.530Z,14.90
2017-11-25T04:05:09.365Z,12.60
2017-11-25T04:07:38.205Z,17.23
2017-11-25T04:10:07.374Z,24.47
2017-11-25T04:12:36.245Z,18.30
2017-11-25T04:15:05.136Z,23.20
2017-11-25T04:17:33.980Z,22.53
2017-11-25T04:20:03.604Z,26.60
2017-11-25T04:22:32.467Z,15.73
2017-11-25T04:25:01.325Z,12.90
2017-11-25T04:27:30.492Z,17.30
2017-11-25T04:29:59.379Z,13.83
2017-11-25T04:32:28.220Z,12.47
2017-11-25T04:34:57.069Z,13.13
2017-11-25T04:37:25.904Z,16.90
2017-11-25T04:39:54.736Z,13.03
2017-11-25T04:42:23.571Z,11.40
2017-11-25T04:44:52.384Z,14.27
2017-11-25T04:47:22.001Z,13.97
2017-11-25T04:49:51.595Z,12.53
2017-11-25T04:52:21.217Z,13.73
2017-11-25T04:54:50.813Z,11.97
2017-11-25T04:57:20.448Z,14.03
2017-11-25T04:59:49.299Z,14.80
2017-11-25T05:02:18.126Z,15.40
2017-11-25T05:04:46.967Z,13.23
2017-11-25T05:07:15.820Z,14.40
2017-11-25T05:09:44.988Z,12.00
2017-11-25T05:12:14.573Z,14.40
2017-11-25T05:14:43.419Z,10.87
2017-11-25T05:17:14.225Z,13.50
2017-11-25T05:19:43.839Z,9.27
2017-11-25T05:22:13.446Z,13.47
2017-11-25T05:24:43.055Z,11.40
2017-11-25T05:27:12.631Z,9.57
2017-11-25T05:29:41.471Z,14.63
2017-11-25T05:32:10.310Z,9.47
2017-11-25T05:34:39.355Z,11.20
2017-11-25T05:37:08.188Z,11.83
2017-11-25T05:39:37.033Z,10.50
2017-11-25T05:42:05.916Z,10.80
2017-11-25T05:44:34.753Z,13.03
2017-11-25T05:47:03.593Z,16.10
2017-11-25T05:49:32.439Z,11.03
2017-11-25T05:52:02.775Z,13.07
2017-11-25T05:54:31.603Z,12.60
2017-11-25T05:57:00.450Z,18.63
2017-11-25T05:59:30.780Z,15.60
2017-11-25T06:02:00.428Z,16.90
2017-11-25T06:04:29.426Z,13.00
2017-11-25T06:06:58.300Z,15.53
2017-11-25T06:09:27.137Z,15.10
2017-11-25T06:11:55.969Z,14.20
2017-11-25T06:14:24.820Z,13.97
2017-11-25T06:16:53.672Z,12.00
2017-11-25T06:19:22.515Z,10.33
2017-11-25T06:21:52.111Z,12.47
2017-11-25T06:24:21.059Z,11.63
2017-11-25T06:26:49.978Z,14.53
2017-11-25T06:29:18.793Z,13.73
2017-11-25T06:31:48.400Z,15.30
2017-11-25T06:34:18.012Z,34.10
2017-11-25T06:36:47.635Z,41.37
2017-11-25T06:39:16.500Z,24.90
2017-11-25T06:41:46.109Z,18.43
2017-11-25T06:44:16.053Z,20.90
2017-11-25T06:46:44.888Z,14.00
2017-11-25T06:49:13.726Z,16.00
2017-11-25T06:51:42.608Z,14.33
2017-11-25T06:54:11.456Z,16.23
2017-11-25T06:56:40.345Z,18.57
2017-11-25T06:59:09.272Z,20.40
2017-11-25T07:01:38.882Z,14.43
2017-11-25T07:04:08.493Z,17.33
2017-11-25T07:06:55.290Z,21.10
2017-11-25T07:09:29.916Z,17.10
2017-11-25T07:12:01.868Z,16.53
2017-11-25T07:14:43.652Z,18.40
2017-11-25T07:17:14.808Z,17.93
2017-11-25T07:19:50.761Z,21.97
2017-11-25T07:22:21.752Z,21.57
2017-11-25T07:24:56.039Z,23.10
2017-11-25T07:27:33.159Z,22.83
2017-11-25T07:48:06.635Z,30.13
2017-11-25T07:50:36.618Z,26.77
2017-11-25T07:53:06.410Z,30.50
2017-11-25T07:55:35.412Z,30.50
2017-11-25T07:58:05.625Z,30.77
2017-11-25T08:00:36.176Z,27.07
2017-11-25T08:03:18.641Z,30.90
2017-11-25T08:25:07.638Z,32.73
2017-11-25T08:27:40.787Z,28.87
2017-11-25T08:30:13.092Z,36.07
2017-11-25T08:32:46.461Z,34.93
2017-11-25T08:35:17.519Z,29.00
2017-11-25T08:37:47.960Z,26.13
2017-11-25T08:40:19.713Z,26.83
2017-11-25T08:42:56.857Z,19.43
2017-11-25T08:45:30.322Z,23.77
2017-11-25T08:48:01.123Z,23.30
2017-11-25T08:50:29.966Z,23.70
2017-11-25T08:52:58.846Z,20.57
2017-11-25T08:55:27.675Z,20.40
2017-11-25T08:57:56.530Z,17.23
2017-11-25T09:00:26.184Z,21.27
2017-11-25T09:21:01.757Z,19.57
2017-11-25T09:23:30.568Z,11.97
2017-11-25T09:25:59.409Z,12.43
2017-11-25T09:28:28.260Z,16.30
2017-11-25T09:30:57.876Z,16.83
2017-11-25T09:33:26.740Z,18.67
2017-11-25T09:35:55.568Z,14.70
2017-11-25T09:38:24.449Z,14.47
2017-11-25T09:40:54.107Z,15.20
2017-11-25T09:43:23.167Z,13.30
2017-11-25T09:45:52.005Z,16.90
2017-11-25T09:48:20.849Z,17.00
2017-11-25T09:50:49.680Z,15.70
2017-11-25T09:53:18.520Z,14.87
2017-11-25T09:55:47.669Z,10.63
2017-11-25T09:58:16.535Z,14.43
2017-11-25T10:00:46.222Z,13.60
2017-11-25T10:03:15.098Z,19.40
2017-11-25T10:05:43.937Z,14.10
2017-11-25T10:08:12.801Z,22.07
2017-11-25T10:10:41.648Z,15.90
2017-11-25T10:13:10.501Z,15.03
2017-11-25T10:15:39.355Z,11.90
2017-11-25T10:18:08.197Z,13.67
2017-11-25T10:20:38.256Z,11.07
2017-11-25T10:23:07.853Z,14.00
2017-11-25T10:25:36.743Z,13.53
2017-11-25T10:28:06.382Z,19.50
2017-11-25T10:30:35.219Z,12.43
2017-11-25T10:33:04.050Z,15.57
2017-11-25T10:35:32.893Z,14.43
2017-11-25T10:38:01.748Z,11.97
2017-11-25T10:40:30.612Z,14.83
2017-11-25T10:43:00.344Z,11.23
2017-11-25T10:45:29.262Z,12.30
2017-11-25T10:47:58.086Z,12.27
2017-11-25T10:50:27.696Z,15.40
2017-11-25T10:52:57.315Z,12.63
2017-11-25T10:55:27.879Z,17.40
2017-11-25T10:57:58.463Z,19.50
2017-11-25T11:00:31.061Z,19.43
2017-11-25T11:03:10.653Z,17.47
2017-11-25T11:08:24.948Z,14.20
2017-11-25T11:10:56.240Z,14.30
2017-11-25T11:13:33.845Z,16.43
2017-11-25T11:16:04.285Z,16.53
2017-11-25T11:18:39.640Z,13.20
2017-11-25T11:21:12.458Z,18.00
2017-11-25T11:23:44.257Z,12.07
2017-11-25T11:26:13.346Z,14.10
2017-11-25T11:28:56.174Z,16.20
2017-11-25T11:31:28.040Z,18.03
2017-11-25T11:33:57.094Z,14.03
2017-11-25T11:36:26.143Z,19.43
2017-11-25T11:38:55.064Z,21.20
2017-11-25T11:41:25.086Z,20.23
2017-11-25T11:43:55.676Z,14.93
2017-11-25T11:49:31.785Z,17.63
2017-11-25T11:52:11.203Z,13.40
2017-11-25T11:54:50.241Z,14.13
2017-11-25T11:57:33.451Z,30.63
2017-11-25T12:03:29.515Z,13.27
2017-11-25T12:06:07.224Z,24.87
2017-11-25T12:08:36.970Z,11.40
2017-11-25T12:11:09.380Z,14.83
2017-11-25T12:13:46.700Z,17.70
2017-11-25T12:16:20.888Z,16.70
2017-11-25T12:18:55.953Z,14.87
2017-11-25T12:21:30.174Z,14.43
2017-11-25T12:49:41.521Z,8.93
2017-11-25T12:52:14.204Z,10.40
2017-11-25T12:54:44.455Z,8.70
2017-11-25T12:57:17.325Z,11.93
2017-11-25T12:59:51.724Z,10.50
2017-11-25T13:02:24.331Z,10.90
2017-11-25T13:07:30.283Z,7.33
2017-11-25T13:10:08.763Z,12.10
2017-11-25T13:12:55.916Z,7.40
2017-11-25T13:15:27.721Z,8.33
2017-11-25T13:17:56.807Z,8.50
2017-11-25T13:20:25.660Z,8.63
2017-11-25T13:22:54.506Z,10.10
2017-11-25T13:25:23.364Z,10.70
2017-11-25T13:27:52.218Z,8.50
2017-11-25T13:30:21.076Z,9.10
2017-11-25T13:32:50.672Z,10.50
2017-11-25T13:35:20.281Z,10.97
2017-11-25T13:37:50.452Z,13.93
2017-11-25T13:40:19.638Z,9.10
2017-11-25T13:42:48.445Z,14.83
2017-11-25T13:45:17.295Z,10.00
2017-11-25T13:47:46.121Z,13.37
2017-11-25T13:50:14.969Z,13.60
2017-11-25T13:52:43.805Z,12.33
2017-11-25T13:55:12.658Z,10.67
2017-11-25T13:57:41.517Z,10.37
2017-11-25T14:00:11.159Z,8.47
2017-11-25T14:02:39.980Z,10.60
2017-11-25T14:05:08.853Z,8.63
2017-11-25T14:07:37.672Z,9.63
2017-11-25T14:10:06.500Z,9.93
2017-11-25T14:12:35.461Z,11.17
2017-11-25T14:15:04.266Z,13.27
2017-11-25T14:17:33.126Z,10.23
2017-11-25T14:20:01.977Z,10.20
2017-11-25T14:22:30.846Z,13.40
2017-11-25T14:24:59.713Z,8.87
2017-11-25T14:27:28.990Z,10.80
2017-11-25T14:29:57.821Z,10.23
2017-11-25T14:32:27.435Z,14.30
2017-11-25T14:34:57.044Z,15.70
2017-11-25T14:37:26.664Z,10.37
2017-11-25T14:39:55.521Z,10.20
2017-11-25T14:42:25.480Z,11.93
2017-11-25T14:44:54.339Z,16.30
2017-11-25T14:47:26.264Z,15.60
2017-11-25T14:49:55.130Z,18.23
2017-11-25T14:52:24.020Z,17.77
2017-11-25T14:54:52.865Z,15.20
2017-11-25T14:57:21.699Z,10.77
2017-11-25T14:59:50.550Z,9.93
2017-11-25T15:02:20.166Z,10.50
2017-11-25T15:04:49.764Z,10.00
2017-11-25T15:07:19.351Z,8.00
2017-11-25T15:09:48.190Z,9.50
2017-11-25T15:12:17.042Z,11.50
2017-11-25T15:14:47.375Z,8.80
2017-11-25T15:17:17.085Z,17.40
2017-11-25T15:19:46.673Z,9.67
2017-11-25T15:22:15.531Z,10.17
2017-11-25T15:24:44.395Z,12.87
2017-11-25T15:27:13.222Z,12.83
2017-11-25T15:29:42.056Z,9.90
2017-11-25T15:45:10.935Z,13.63
2017-11-25T15:47:41.427Z,17.37
2017-11-25T15:50:10.309Z,13.50
2017-11-25T15:52:39.142Z,10.57
2017-11-25T15:55:08.729Z,18.40
2017-11-25T15:57:38.343Z,11.30
2017-11-25T16:00:08.000Z,14.83
2017-11-25T16:02:36.835Z,17.10
2017-11-25T16:05:06.472Z,23.37
2017-11-25T16:07:35.329Z,12.93
2017-11-25T16:10:04.954Z,18.60
2017-11-25T16:12:33.858Z,22.10
2017-11-25T16:15:02.693Z,21.13
2017-11-25T16:17:31.559Z,21.03
2017-11-25T16:20:00.458Z,20.47
2017-11-25T16:22:29.349Z,17.40
2017-11-25T16:24:58.355Z,17.30
2017-11-25T16:27:27.994Z,18.30
2017-11-25T16:29:57.461Z,21.60
2017-11-25T16:32:26.541Z,19.50
2017-11-25T16:34:55.502Z,24.20
2017-11-25T16:37:24.349Z,20.73
2017-11-25T16:39:54.009Z,22.23
2017-11-25T16:42:22.840Z,18.63
2017-11-25T16:44:52.466Z,16.80
2017-11-25T16:47:21.315Z,28.30
2017-11-25T16:49:50.150Z,21.07
2017-11-25T16:52:19.030Z,17.60
2017-11-25T16:54:48.706Z,20.03
2017-11-25T16:57:17.533Z,20.67
2017-11-25T16:59:46.378Z,22.00
2017-11-25T17:02:15.222Z,16.80
2017-11-25T17:04:44.098Z,18.27
2017-11-25T17:07:13.711Z,14.73
2017-11-25T17:09:42.783Z,17.20
2017-11-25T17:12:11.682Z,16.87
2017-11-25T17:14:41.315Z,17.57
2017-11-25T17:17:10.157Z,19.13
2017-11-25T17:19:39.009Z,17.83
2017-11-25T17:22:07.860Z,20.63
2017-11-25T17:24:37.548Z,15.37
2017-11-25T17:27:06.364Z,18.50
2017-11-25T17:29:38.821Z,19.90
2017-11-25T17:32:11.985Z,18.77
2017-11-25T17:34:44.684Z,21.40
2017-11-25T17:37:18.546Z,16.47
2017-11-25T17:39:54.155Z,19.90
2017-11-25T17:42:24.262Z,19.50
2017-11-25T17:45:03.967Z,17.30
2017-11-25T17:47:34.796Z,19.93
2017-11-25T17:50:11.788Z,17.80
2017-11-25T17:52:40.954Z,16.20
2017-11-25T17:55:09.868Z,19.90
2017-11-25T17:57:38.724Z,25.23
2017-11-25T18:00:07.598Z,22.83
2017-11-25T18:02:37.273Z,19.17
2017-11-25T18:05:06.108Z,16.63
2017-11-25T18:07:34.994Z,16.40
2017-11-25T18:10:04.615Z,18.60
2017-11-25T18:12:33.455Z,16.83
2017-11-25T18:15:03.109Z,18.00
2017-11-25T18:17:31.968Z,16.40
2017-11-25T18:20:01.657Z,14.87
2017-11-25T18:22:30.499Z,16.50
2017-11-25T18:24:59.476Z,14.90
2017-11-25T18:27:29.088Z,12.70
2017-11-25T18:29:57.933Z,12.87
2017-11-25T18:32:26.779Z,11.63
2017-11-25T18:34:55.633Z,12.10
2017-11-25T18:37:24.938Z,11.13
2017-11-25T18:39:54.558Z,12.83
2017-11-25T18:42:23.453Z,11.10
2017-11-25T18:44:52.288Z,8.97
2017-11-25T18:47:21.140Z,8.10
2017-11-25T18:49:50.022Z,8.57
2017-11-25T18:52:19.384Z,7.40
2017-11-25T18:54:48.376Z,8.67
2017-11-25T18:57:17.283Z,7.07
2017-11-25T18:59:46.241Z,7.57
2017-11-25T19:02:16.620Z,6.00
2017-11-25T19:04:45.538Z,6.53
2017-11-25T19:07:14.378Z,6.13
2017-11-25T19:09:43.992Z,5.53
2017-11-25T19:12:13.613Z,8.17
2017-11-25T19:14:43.311Z,6.20
2017-11-25T19:17:12.976Z,8.03
2017-11-25T19:19:41.840Z,7.60
2017-11-25T19:22:11.037Z,7.20
2017-11-25T19:24:39.855Z,6.70
2017-11-25T19:27:09.053Z,6.93
2017-11-25T19:29:37.921Z,7.27
2017-11-25T19:32:06.754Z,7.80
2017-11-25T19:34:35.581Z,10.17
2017-11-25T19:37:04.419Z,6.30
2017-11-25T19:39:33.382Z,5.40
2017-11-25T19:42:02.311Z,6.70
2017-11-25T19:44:31.140Z,7.43
2017-11-25T19:47:00.062Z,7.70
2017-11-25T19:49:28.883Z,6.63
2017-11-25T19:51:58.826Z,6.17
2017-11-25T19:54:28.108Z,7.83
2017-11-25T19:56:57.687Z,8.83
2017-11-25T19:59:26.507Z,6.10
2017-11-25T20:01:55.373Z,7.00
2017-11-25T20:04:24.196Z,6.23
2017-11-25T20:06:53.818Z,6.93
2017-11-25T20:09:23.405Z,7.20
2017-11-25T20:11:52.996Z,7.77
2017-11-25T20:14:21.865Z,8.40
2017-11-25T20:16:50.762Z,7.57
2017-11-25T20:19:19.605Z,8.80
2017-11-25T20:21:48.426Z,9.00
2017-11-25T20:24:17.275Z,8.53
2017-11-25T20:26:46.190Z,12.73
2017-11-25T20:29:15.029Z,9.03
2017-11-25T20:31:43.876Z,9.70
2017-11-25T20:34:12.847Z,7.73
2017-11-25T20:36:42.436Z,10.67
2017-11-25T20:39:12.065Z,7.17
2017-11-25T20:41:41.656Z,12.97
2017-11-25T20:44:11.266Z,8.80
2017-11-25T20:46:40.902Z,8.60
2017-11-25T20:49:10.284Z,8.87
2017-11-25T20:51:39.135Z,25.77
2017-11-25T20:54:08.044Z,8.10
2017-11-25T20:56:36.964Z,10.40
2017-11-25T20:59:05.817Z,8.43
2017-11-25T21:01:35.760Z,9.63
2017-11-25T21:04:05.030Z,9.87
2017-11-25T21:06:34.000Z,9.10
2017-11-25T21:09:02.873Z,10.13
2017-11-25T21:11:31.725Z,8.97
2017-11-25T21:14:01.441Z,15.07
2017-11-25T21:16:30.365Z,9.77
2017-11-25T21:18:59.179Z,14.63
2017-11-25T21:21:28.025Z,13.33
2017-11-25T21:23:56.864Z,14.80
2017-11-25T21:26:25.745Z,10.53
2017-11-25T21:28:54.692Z,10.10
2017-11-25T21:31:24.286Z,9.60
2017-11-25T21:33:53.273Z,10.67
2017-11-25T21:36:22.082Z,9.77
2017-11-25T21:38:51.693Z,10.40
2017-11-25T21:41:20.533Z,13.10
2017-11-25T21:43:49.380Z,12.50
2017-11-25T21:46:18.280Z,11.83
2017-11-25T21:48:47.191Z,10.80
2017-11-25T21:51:16.016Z,14.30
2017-11-25T21:53:45.660Z,10.23
2017-11-25T21:56:14.484Z,9.47
2017-11-25T21:58:43.329Z,11.33
2017-11-25T22:01:12.178Z,12.80
2017-11-25T22:03:42.539Z,14.83
2017-11-25T22:06:11.381Z,10.70
2017-11-25T22:08:40.262Z,13.97
2017-11-25T22:11:09.159Z,10.90
2017-11-25T22:13:38.044Z,12.40
2017-11-25T22:16:06.865Z,15.37
2017-11-25T22:18:36.569Z,14.63
2017-11-25T22:21:05.416Z,10.60
2017-11-25T22:23:34.268Z,11.33
2017-11-25T22:26:03.126Z,13.03
2017-11-25T22:28:32.075Z,14.10
2017-11-25T22:31:00.928Z,13.20
2017-11-25T22:33:29.776Z,12.53
2017-11-25T22:35:59.403Z,15.23
2017-11-25T22:38:28.295Z,16.67
2017-11-25T22:40:57.756Z,15.30
2017-11-25T22:43:26.632Z,19.43
2017-11-25T22:45:55.469Z,14.50
2017-11-25T22:48:24.369Z,16.87
2017-11-25T22:50:53.215Z,17.30
2017-11-25T22:53:22.058Z,20.27
2017-11-25T22:55:50.960Z,13.60
2017-11-25T22:58:19.802Z,15.33
2017-11-25T23:00:49.392Z,15.33
2017-11-25T23:03:18.232Z,13.57
2017-11-25T23:05:52.727Z,18.43
2017-11-25T23:08:22.415Z,13.53
2017-11-25T23:10:51.239Z,12.63
2017-11-25T23:13:20.107Z,15.63
2017-11-25T23:15:49.744Z,13.43
2017-11-25T23:18:18.584Z,19.83
2017-11-25T23:20:47.456Z,12.50
2017-11-25T23:23:16.296Z,15.17
2017-11-25T23:25:45.138Z,13.03
2017-11-25T23:28:13.992Z,17.87
2017-11-25T23:30:42.831Z,10.67
2017-11-25T23:33:11.677Z,12.60
2017-11-25T23:35:41.296Z,13.37
2017-11-25T23:38:10.185Z,13.97
2017-11-25T23:40:39.975Z,12.43
2017-11-25T23:43:09.601Z,11.93
2017-11-25T23:45:38.445Z,12.83
2017-11-25T23:48:08.083Z,11.27
2017-11-25T23:50:37.687Z,12.37
2017-11-25T23:53:07.305Z,12.10
2017-11-25T23:55:36.174Z,20.77
2017-11-25T23:58:05.000Z,13.27
